Time;durP1;ratioP1;P1;durP2;ratioP2;P2;SDS_P1;SDS_P2;PMS_P1;PMS_P2;Temp;Humidity;BMP_temperature;BMP_pressure;BME280_temperature;BME280_humidity;BME280_pressure;Samples;Min_cycle;Max_cycle;Signal;HPM_P1;HPM_P2
2022/01/04 00:00:47;;;;;;;7.20;2.30;;;;;;;9.29;51.59;99629.03;5074583;28;20075;-69
2022/01/04 00:03:14;;;;;;;11.57;1.70;;;;;;;9.40;51.07;99635.00;5076392;28;20546;-68
2022/01/04 00:05:41;;;;;;;8.88;2.00;;;;;;;9.26;51.53;99636.59;5077088;28;20123;-68
2022/01/04 00:08:11;;;;;;;15.18;2.38;;;;;;;9.40;51.20;99635.00;5077136;28;20124;-68
2022/01/04 00:10:38;;;;;;;8.82;2.30;;;;;;;9.55;50.96;99625.19;5075894;28;20484;-70
2022/01/04 00:13:23;;;;;;;7.85;2.03;;;;;;;9.28;51.66;99622.03;5074432;28;20108;-68
2022/01/04 00:15:54;;;;;;;8.85;1.95;;;;;;;9.50;51.07;99616.84;5075724;28;20051;-69
2022/01/04 00:18:22;;;;;;;6.80;1.73;;;;;;;9.45;50.70;99604.00;5075205;28;21764;-68
2022/01/04 00:20:50;;;;;;;7.72;1.90;;;;;;;9.46;51.02;99600.31;5075064;28;20279;-69
2022/01/04 00:23:17;;;;;;;10.07;2.38;;;;;;;9.79;50.44;99600.03;5075629;28;20063;-69
2022/01/04 00:25:45;;;;;;;8.70;1.83;;;;;;;9.62;50.64;99598.50;5074313;28;20108;-69
2022/01/04 00:28:11;;;;;;;12.15;1.80;;;;;;;9.41;51.32;99602.72;5075656;28;20454;-69
2022/01/04 00:30:39;;;;;;;8.52;2.40;;;;;;;9.54;50.85;99596.72;5075831;28;20068;-68
2022/01/04 00:33:09;;;;;;;16.27;2.30;;;;;;;9.43;51.17;99589.94;5075083;28;20036;-68
2022/01/04 00:35:36;;;;;;;10.27;3.15;;;;;;;9.12;52.12;99591.84;5074902;28;20033;-68
2022/01/04 00:38:04;;;;;;;7.15;1.65;;;;;;;9.39;51.06;99588.66;5075580;28;20199;-68
2022/01/04 00:40:31;;;;;;;6.20;1.95;;;;;;;9.15;51.70;99584.28;5074964;28;20067;-68
2022/01/04 00:42:58;;;;;;;5.80;1.92;;;;;;;9.33;51.38;99584.00;5074603;28;20136;-68
2022/01/04 00:45:32;;;;;;;12.00;2.03;;;;;;;8.82;52.98;99571.16;5075501;28;20113;-68
2022/01/04 00:50:28;;;;;;;5.32;1.60;;;;;;;8.99;52.59;99566.53;5073672;28;20127;-68
2022/01/04 00:52:55;;;;;;;11.88;1.67;;;;;;;9.08;52.32;99561.94;5074279;28;20119;-68
2022/01/04 00:55:21;;;;;;;8.43;1.95;;;;;;;9.40;51.28;99558.19;5075153;28;20135;-69
2022/01/04 00:57:48;;;;;;;9.23;1.63;;;;;;;9.17;52.08;99558.19;5075176;28;20444;-69
2022/01/04 01:00:16;;;;;;;7.82;1.60;;;;;;;8.90;52.58;99558.75;5073576;28;20136;-69
2022/01/04 01:02:43;;;;;;;10.10;1.60;;;;;;;8.99;52.60;99550.50;5073435;28;20119;-69
2022/01/04 01:05:11;;;;;;;5.63;1.63;;;;;;;8.98;52.75;99537.28;5074535;28;20473;-69
2022/01/04 01:07:38;;;;;;;9.07;1.63;;;;;;;9.34;51.70;99542.88;5072891;28;20533;-68
2022/01/04 01:12:53;;;;;;;4.47;1.85;;;;;;;9.05;52.66;99547.06;5067766;28;20495;-69
2022/01/04 01:15:20;;;;;;;9.48;1.40;;;;;;;9.13;52.02;99530.16;5075064;28;20430;-69
2022/01/04 01:17:47;;;;;;;5.22;1.27;;;;;;;8.49;53.46;99517.03;5074531;28;20421;-69
2022/01/04 01:20:14;;;;;;;5.07;1.70;;;;;;;8.78;52.88;99520.84;5074249;28;20072;-69
2022/01/04 01:22:42;;;;;;;7.03;1.60;;;;;;;9.08;52.41;99521.81;5074102;28;20127;-69
2022/01/04 01:25:09;;;;;;;10.23;1.67;;;;;;;9.30;51.57;99525.50;5074246;28;20127;-69
2022/01/04 01:27:36;;;;;;;10.65;2.13;;;;;;;9.17;52.15;99515.38;5073160;28;20534;-68
2022/01/04 01:30:03;;;;;;;7.88;1.83;;;;;;;9.46;51.07;99511.97;5074306;28;20028;-68
2022/01/04 01:32:30;;;;;;;11.18;2.17;;;;;;;9.04;52.41;99505.28;5074413;28;20071;-68
2022/01/04 01:34:56;;;;;;;4.88;1.50;;;;;;;9.28;51.78;99509.63;5073419;28;20060;-68
2022/01/04 01:37:23;;;;;;;2.92;1.20;;;;;;;9.34;51.56;99512.59;5073296;28;20135;-68
2022/01/04 01:39:49;;;;;;;8.18;1.63;;;;;;;9.44;51.19;99505.97;5074143;28;20059;-69
2022/01/04 01:42:16;;;;;;;5.60;1.67;;;;;;;9.32;51.40;99491.38;5074138;28;20453;-68
2022/01/04 01:44:42;;;;;;;7.95;1.50;;;;;;;9.15;52.05;99492.50;5073002;28;20460;-68
2022/01/04 01:47:09;;;;;;;7.53;1.45;;;;;;;9.42;51.50;99486.56;5073251;28;20050;-70
2022/01/04 01:49:35;;;;;;;5.78;1.45;;;;;;;9.57;50.87;99478.56;5072501;28;20135;-70
2022/01/04 01:52:02;;;;;;;4.68;1.55;;;;;;;9.15;51.87;99473.75;5072553;28;20108;-71
2022/01/04 01:54:29;;;;;;;5.78;1.50;;;;;;;9.21;51.81;99471.19;5072643;28;20464;-70
2022/01/04 01:56:55;;;;;;;6.22;1.77;;;;;;;9.32;51.76;99481.47;5073162;28;20456;-70
2022/01/04 01:59:22;;;;;;;5.57;1.50;;;;;;;9.66;50.78;99465.91;5072566;28;20536;-70
2022/01/04 02:01:48;;;;;;;5.78;1.50;;;;;;;9.61;50.80;99469.13;5073662;28;20472;-70
2022/01/04 02:04:15;;;;;;;4.18;1.25;;;;;;;9.27;51.97;99462.47;5073584;28;20041;-70
2022/01/04 02:07:31;;;;;;;8.90;1.70;;;;;;;9.30;51.50;99453.22;5074405;28;20123;-70
2022/01/04 02:10:03;;;;;;;7.53;1.38;;;;;;;9.38;51.14;99453.16;5073736;28;20033;-70
2022/01/04 02:12:38;;;;;;;5.70;1.42;;;;;;;9.39;51.51;99448.63;5070937;28;20099;-70
2022/01/04 02:15:09;;;;;;;5.60;1.52;;;;;;;9.01;52.65;99440.63;5073497;28;20127;-70
2022/01/04 02:17:36;;;;;;;3.67;1.20;;;;;;;9.37;51.35;99432.78;5072947;28;20127;-70
2022/01/04 02:20:04;;;;;;;11.60;1.63;;;;;;;9.32;51.84;99430.63;5072928;28;20044;-68
2022/01/04 02:22:31;;;;;;;10.68;1.42;;;;;;;9.02;52.39;99432.44;5072648;28;20052;-68
2022/01/04 02:24:58;;;;;;;13.32;1.85;;;;;;;9.45;51.73;99421.97;5073038;28;20469;-68
2022/01/04 02:27:25;;;;;;;6.93;1.42;;;;;;;9.41;51.58;99425.22;5071773;28;20479;-68
2022/01/04 02:29:51;;;;;;;3.75;1.20;;;;;;;9.42;51.75;99419.66;5074188;28;20064;-68
2022/01/04 02:32:18;;;;;;;4.88;1.10;;;;;;;9.71;50.78;99412.63;5072408;28;20056;-68
2022/01/04 02:34:49;;;;;;;6.30;1.25;;;;;;;9.77;50.54;99409.19;5072862;28;20079;-68
2022/01/04 02:37:24;;;;;;;5.93;1.20;;;;;;;9.72;50.58;99406.25;5074204;28;20076;-68
2022/01/04 02:39:54;;;;;;;3.28;1.25;;;;;;;9.50;51.42;99392.78;5075419;28;20127;-68
2022/01/04 02:42:22;;;;;;;4.68;1.40;;;;;;;9.19;51.88;99384.91;5076715;28;20051;-68
2022/01/04 02:44:48;;;;;;;5.25;1.35;;;;;;;9.62;51.45;99378.94;5076073;28;20044;-68
2022/01/04 02:47:15;;;;;;;2.45;1.08;;;;;;;9.52;51.35;99380.06;5076481;28;20191;-68
2022/01/04 02:49:42;;;;;;;4.93;1.30;;;;;;;9.31;52.50;99372.78;5076934;28;20087;-68
2022/01/04 02:52:09;;;;;;;8.10;1.50;;;;;;;9.47;51.98;99371.75;5076017;28;20130;-68
2022/01/04 02:54:35;;;;;;;3.70;1.17;;;;;;;9.25;52.59;99373.50;5076607;28;20072;-68
2022/01/04 02:57:02;;;;;;;5.43;1.17;;;;;;;9.21;52.43;99366.84;5076126;28;20123;-68
2022/01/04 02:59:28;;;;;;;7.20;1.40;;;;;;;9.65;51.59;99368.69;5077176;28;20071;-68
2022/01/04 03:01:56;;;;;;;4.40;1.17;;;;;;;9.41;51.72;99377.03;5076448;28;20048;-68
2022/01/04 03:04:23;;;;;;;5.03;1.30;;;;;;;10.03;50.22;99371.19;5077344;28;20131;-68
2022/01/04 03:06:49;;;;;;;5.18;1.33;;;;;;;9.96;50.67;99371.13;5076991;28;20064;-68
2022/01/04 03:09:16;;;;;;;3.63;1.35;;;;;;;9.93;50.84;99376.84;5078084;28;20399;-68
2022/01/04 03:11:42;;;;;;;3.50;1.30;;;;;;;10.12;50.00;99366.53;5074960;28;20136;-68
2022/01/04 03:14:09;;;;;;;5.38;1.45;;;;;;;9.98;50.52;99362.88;5078607;28;20068;-68
2022/01/04 03:16:35;;;;;;;4.45;1.25;;;;;;;9.96;50.49;99364.94;5075305;28;20397;-68
2022/01/04 03:19:03;;;;;;;5.57;1.20;;;;;;;9.82;50.85;99363.94;5077502;28;20131;-68
2022/01/04 03:21:30;;;;;;;2.30;0.98;;;;;;;10.19;50.18;99354.84;5077914;28;20075;-68
2022/01/04 03:23:57;;;;;;;3.72;0.98;;;;;;;10.16;50.08;99354.41;5076384;28;20041;-68
2022/01/04 03:26:24;;;;;;;5.78;1.50;;;;;;;9.81;51.30;99346.19;5075888;28;20101;-68
2022/01/04 03:28:51;;;;;;;7.13;1.27;;;;;;;10.11;50.78;99335.41;5077013;28;20072;-69
2022/01/04 03:31:18;;;;;;;5.85;1.10;;;;;;;9.52;51.56;99336.38;5077486;28;20100;-69
2022/01/04 03:33:44;;;;;;;6.10;1.40;;;;;;;10.01;50.62;99325.81;5077242;28;20059;-69
2022/01/04 03:36:11;;;;;;;4.43;0.90;;;;;;;9.96;50.90;99335.47;5077320;28;20064;-68
2022/01/04 03:38:38;;;;;;;3.83;1.30;;;;;;;9.88;51.28;99336.38;5076206;28;20488;-69
2022/01/04 03:41:07;;;;;;;4.45;0.98;;;;;;;9.54;52.18;99324.50;5077047;28;20083;-69
2022/01/04 03:43:37;;;;;;;3.90;1.15;;;;;;;9.89;50.98;99330.03;5076961;28;20072;-68
2022/01/04 03:46:07;;;;;;;6.82;1.48;;;;;;;10.04;50.48;99321.94;5077284;28;20044;-68
2022/01/04 03:48:35;;;;;;;4.22;1.10;;;;;;;9.92;50.86;99316.22;5077231;28;20602;-68
2022/01/04 03:51:02;;;;;;;4.15;1.30;;;;;;;9.71;51.48;99306.31;5076349;28;20128;-68
2022/01/04 03:53:28;;;;;;;5.40;0.95;;;;;;;8.92;54.07;99313.31;5077276;28;20059;-68
2022/01/04 03:55:55;;;;;;;3.35;1.30;;;;;;;9.24;53.33;99294.25;5075977;28;20067;-68
2022/01/04 03:58:22;;;;;;;5.03;1.80;;;;;;;9.27;52.90;99287.69;5076434;28;20072;-68
2022/01/04 04:00:50;;;;;;;3.60;1.40;;;;;;;9.96;51.16;99288.06;5077909;28;20040;-68
2022/01/04 04:03:16;;;;;;;6.53;1.30;;;;;;;9.25;53.42;99287.06;5076432;28;20050;-68
2022/01/04 04:05:43;;;;;;;5.20;1.23;;;;;;;10.04;51.09;99284.41;5076942;28;20064;-68
2022/01/04 04:08:09;;;;;;;7.93;1.58;;;;;;;9.48;52.41;99279.72;5077628;28;20100;-68
2022/01/04 04:10:36;;;;;;;5.95;1.52;;;;;;;9.37;52.97;99274.84;5076376;28;20057;-68
2022/01/04 04:13:03;;;;;;;3.80;1.40;;;;;;;9.40;52.78;99274.47;5075196;28;20516;-68
2022/01/04 04:15:29;;;;;;;5.85;1.45;;;;;;;9.39;53.14;99277.34;5074753;28;20054;-68
2022/01/04 04:17:56;;;;;;;5.03;1.45;;;;;;;9.09;54.04;99277.34;5075855;28;20458;-68
2022/01/04 04:20:22;;;;;;;8.02;1.20;;;;;;;9.57;52.63;99270.53;5075765;28;20076;-68
2022/01/04 04:22:50;;;;;;;2.95;1.33;;;;;;;9.99;51.60;99263.56;5075936;28;20127;-68
2022/01/04 04:25:16;;;;;;;6.43;1.73;;;;;;;9.84;51.70;99268.16;5076222;28;20101;-68
2022/01/04 04:27:43;;;;;;;7.00;1.73;;;;;;;9.82;51.62;99267.53;5076544;28;20094;-68
2022/01/04 04:30:10;;;;;;;4.47;1.50;;;;;;;10.00;51.27;99269.75;5074549;28;20473;-68
2022/01/04 04:32:36;;;;;;;4.28;1.35;;;;;;;9.62;52.09;99269.16;5073604;28;20147;-69
2022/01/04 04:35:04;;;;;;;6.38;1.70;;;;;;;9.62;52.67;99266.50;5068933;28;20468;-68
2022/01/04 04:37:30;;;;;;;6.22;1.80;;;;;;;9.86;51.87;99262.63;5074396;28;20056;-68
2022/01/04 04:39:57;;;;;;;4.55;1.40;;;;;;;9.69;52.63;99260.19;5074773;28;20124;-68
2022/01/04 04:42:23;;;;;;;8.95;2.55;;;;;;;9.91;51.79;99252.13;5074839;28;20440;-68
2022/01/04 04:44:50;;;;;;;5.25;2.08;;;;;;;9.52;52.68;99248.03;5074790;28;20044;-68
2022/01/04 04:47:16;;;;;;;4.60;1.70;;;;;;;9.45;52.91;99245.28;5075035;28;20087;-68
2022/01/04 04:49:43;;;;;;;11.32;2.45;;;;;;;9.60;52.25;99241.72;5076320;28;20067;-68
2022/01/04 04:52:09;;;;;;;7.30;1.90;;;;;;;9.70;52.30;99244.94;5076080;28;20041;-68
2022/01/04 04:54:36;;;;;;;6.53;2.20;;;;;;;9.97;51.83;99246.84;5075472;28;20044;-68
2022/01/04 04:57:02;;;;;;;4.18;1.83;;;;;;;9.32;53.23;99242.47;5074408;28;20373;-68
2022/01/04 04:59:29;;;;;;;6.10;2.10;;;;;;;9.45;52.94;99225.72;5073039;28;20071;-68
2022/01/04 05:01:56;;;;;;;6.78;2.25;;;;;;;9.63;52.50;99226.13;5074898;28;20083;-68
2022/01/04 05:04:23;;;;;;;6.65;2.05;;;;;;;9.11;54.13;99215.63;5075217;28;20049;-68
2022/01/04 05:06:50;;;;;;;7.65;2.30;;;;;;;9.29;53.52;99216.06;5074413;28;20369;-68
2022/01/04 05:09:16;;;;;;;7.25;1.92;;;;;;;9.04;54.38;99212.88;5074776;28;20139;-68
2022/01/04 05:11:42;;;;;;;6.05;2.30;;;;;;;9.22;54.06;99215.13;5074219;28;20068;-68
2022/01/04 05:14:09;;;;;;;8.13;2.58;;;;;;;8.91;54.81;99204.69;5073220;28;20131;-68
2022/01/04 05:16:35;;;;;;;7.50;2.20;;;;;;;9.06;54.64;99211.69;5075146;28;20087;-68
2022/01/04 05:19:02;;;;;;;8.70;2.30;;;;;;;8.68;55.70;99207.44;5073702;28;20124;-68
2022/01/04 05:21:29;;;;;;;8.18;2.38;;;;;;;9.08;54.68;99196.25;5074607;28;20068;-68
2022/01/04 05:23:55;;;;;;;9.05;2.20;;;;;;;9.29;54.25;99183.97;5074258;28;20072;-68
2022/01/04 05:26:22;;;;;;;5.40;2.28;;;;;;;8.95;54.67;99180.03;5072843;28;20147;-68
2022/01/04 05:28:48;;;;;;;7.93;2.47;;;;;;;9.02;54.73;99175.63;5073038;28;20051;-68
2022/01/04 05:31:14;;;;;;;7.25;2.47;;;;;;;9.27;54.41;99178.00;5074073;28;20124;-68
2022/01/04 05:33:42;;;;;;;8.27;2.75;;;;;;;9.69;52.78;99179.84;5072062;28;20048;-68
2022/01/04 05:36:08;;;;;;;11.10;2.70;;;;;;;9.30;53.93;99175.75;5072199;28;20055;-69
2022/01/04 05:38:35;;;;;;;6.65;2.33;;;;;;;9.36;53.96;99181.34;5073472;28;20412;-68
2022/01/04 05:41:01;;;;;;;7.18;2.20;;;;;;;9.93;52.47;99173.25;5072338;28;20046;-68
2022/01/04 05:43:27;;;;;;;8.32;3.35;;;;;;;9.42;53.84;99167.22;5072712;28;20124;-68
2022/01/04 05:45:54;;;;;;;7.95;2.58;;;;;;;9.26;53.79;99168.28;5073566;28;20127;-68
2022/01/04 05:48:21;;;;;;;8.30;2.65;;;;;;;8.96;55.01;99159.50;5074230;28;20447;-68
2022/01/04 05:50:48;;;;;;;8.27;2.47;;;;;;;9.14;54.29;99156.41;5072984;28;20499;-68
2022/01/04 05:53:15;;;;;;;5.70;2.75;;;;;;;9.73;52.96;99151.66;5074591;28;20134;-68
2022/01/04 05:55:41;;;;;;;6.78;2.88;;;;;;;9.65;52.76;99145.63;5074685;28;20053;-68
2022/01/04 05:58:09;;;;;;;9.65;3.28;;;;;;;9.09;54.62;99143.56;5073501;28;20130;-68
2022/01/04 06:00:35;;;;;;;12.00;3.53;;;;;;;9.86;52.81;99139.41;5073225;28;20083;-68
2022/01/04 06:03:02;;;;;;;9.07;3.20;;;;;;;9.41;53.21;99131.59;5072684;28;20127;-68
2022/01/04 06:05:29;;;;;;;8.73;2.80;;;;;;;9.57;53.20;99128.63;5074740;28;20110;-68
2022/01/04 06:07:56;;;;;;;9.20;2.75;;;;;;;9.13;54.25;99122.63;5073585;28;20544;-68
2022/01/04 06:10:23;;;;;;;6.95;3.15;;;;;;;9.32;53.69;99108.66;5073913;28;20433;-68
2022/01/04 06:15:17;;;;;;;8.55;3.33;;;;;;;9.71;53.02;99102.78;5076110;28;20115;-68
2022/01/04 06:17:50;;;;;;;9.10;3.67;;;;;;;9.06;54.54;99096.66;5077895;28;20127;-68
2022/01/04 06:20:21;;;;;;;10.93;3.97;;;;;;;9.15;54.77;99094.66;5061134;28;20044;-68
2022/01/04 06:22:48;;;;;;;;;;;;;;;9.03;55.06;99110.41;5078550;28;20108;-68
2022/01/04 06:25:18;;;;;;;12.70;5.13;;;;;;;9.12;55.08;99096.88;5077700;28;19943;-68
2022/01/04 06:27:46;;;;;;;12.82;4.97;;;;;;;9.04;55.20;99087.16;5077709;28;20156;-68
2022/01/04 06:30:16;;;;;;;11.60;4.68;;;;;;;8.77;55.28;99083.34;5075666;28;20123;-68
2022/01/04 06:32:48;;;;;;;12.48;4.85;;;;;;;9.18;54.59;99078.22;5076107;28;20127;-68
2022/01/04 06:35:15;;;;;;;10.77;4.88;;;;;;;9.08;54.95;99083.06;5076491;28;20135;-68
2022/01/04 06:37:43;;;;;;;12.15;4.85;;;;;;;8.63;55.93;99078.88;5059093;28;20456;-68
2022/01/04 06:40:10;;;;;;;10.32;5.00;;;;;;;8.94;54.87;99083.94;5077126;28;20072;-68
2022/01/04 06:42:37;;;;;;;12.63;5.03;;;;;;;9.17;54.91;99073.91;5077742;28;20468;-68
2022/01/04 06:45:04;;;;;;;11.10;5.50;;;;;;;8.78;55.84;99077.84;5078114;28;20123;-68
2022/01/04 06:47:31;;;;;;;12.55;5.00;;;;;;;9.68;53.52;99075.59;5077673;28;20045;-68
2022/01/04 06:49:57;;;;;;;11.45;5.68;;;;;;;9.56;53.88;99065.41;5077520;28;20123;-68
2022/01/04 06:52:24;;;;;;;10.98;5.25;;;;;;;9.00;55.39;99059.13;5077687;28;20077;-68
2022/01/04 06:54:50;;;;;;;11.48;4.72;;;;;;;9.49;54.44;99055.69;5078309;28;20133;-68
2022/01/04 06:57:21;;;;;;;16.27;5.40;;;;;;;9.03;55.35;99058.75;5077806;28;20493;-68
2022/01/04 06:59:48;;;;;;;12.70;5.70;;;;;;;9.67;53.35;99057.88;5077971;28;20132;-68
2022/01/04 07:02:14;;;;;;;13.40;5.75;;;;;;;9.48;54.21;99051.34;5077647;28;20072;-68
2022/01/04 07:04:41;;;;;;;17.15;6.82;;;;;;;9.60;54.04;99062.34;5076809;28;20049;-69
2022/01/04 07:07:08;;;;;;;12.82;6.82;;;;;;;9.67;53.64;99063.22;5078386;28;20044;-70
2022/01/04 07:09:34;;;;;;;12.80;5.80;;;;;;;9.64;53.74;99064.44;5076493;28;20108;-71
2022/01/04 07:12:02;;;;;;;15.35;6.25;;;;;;;9.60;53.84;99059.69;5076569;28;20071;-69
2022/01/04 07:14:28;;;;;;;11.43;5.35;;;;;;;9.77;53.26;99061.03;5077807;28;20075;-70
2022/01/04 07:16:55;;;;;;;15.55;5.97;;;;;;;10.05;52.75;99058.31;5076226;28;20070;-71
2022/01/04 07:19:23;;;;;;;14.70;5.47;;;;;;;9.68;53.81;99065.72;5057232;28;20092;-72
2022/01/04 07:21:49;;;;;;;12.57;4.82;;;;;;;9.79;53.33;99059.81;5076443;28;20048;-72
2022/01/04 07:24:15;;;;;;;8.55;4.45;;;;;;;9.71;53.44;99067.16;5074826;28;20072;-71
2022/01/04 07:26:42;;;;;;;12.13;4.75;;;;;;;9.42;54.58;99069.00;5074768;28;20127;-71
2022/01/04 07:29:08;;;;;;;10.18;4.68;;;;;;;9.55;54.32;99066.44;5074515;28;20123;-72
2022/01/04 07:31:35;;;;;;;8.40;4.38;;;;;;;9.50;54.07;99068.84;5074569;28;20049;-72
2022/01/04 07:34:02;;;;;;;11.00;4.43;;;;;;;9.39;54.95;99057.88;5073825;28;20104;-72
2022/01/04 07:36:30;;;;;;;8.68;4.88;;;;;;;9.57;53.80;99052.84;5077593;28;20064;-72
2022/01/04 07:38:57;;;;;;;9.77;4.20;;;;;;;9.61;53.90;99045.25;5075665;28;20094;-72
2022/01/04 07:41:24;;;;;;;11.38;4.60;;;;;;;10.32;51.97;99045.88;5074598;28;20119;-72
2022/01/04 07:43:50;;;;;;;15.93;4.45;;;;;;;9.60;54.36;99043.59;5076678;28;20048;-71
2022/01/04 07:46:19;;;;;;;8.63;4.43;;;;;;;9.82;53.47;99039.88;5076780;28;20557;-71
2022/01/04 07:48:47;;;;;;;13.35;4.65;;;;;;;9.30;54.86;99039.28;5075175;28;20127;-70
2022/01/04 07:51:13;;;;;;;10.82;4.30;;;;;;;10.15;52.64;99040.03;5075523;28;20049;-71
2022/01/04 07:53:40;;;;;;;13.40;3.53;;;;;;;10.47;51.76;99043.88;5074173;28;20047;-71
2022/01/04 07:56:06;;;;;;;9.00;3.95;;;;;;;10.27;52.20;99045.69;5075538;28;20125;-72
2022/01/04 07:58:33;;;;;;;10.25;3.72;;;;;;;10.30;51.95;99026.50;5076706;28;20056;-71
2022/01/04 08:00:59;;;;;;;7.93;3.20;;;;;;;9.91;52.93;99027.94;5075482;28;20052;-70
2022/01/04 08:03:26;;;;;;;6.55;3.30;;;;;;;9.73;53.22;99024.97;5074666;28;20465;-71
2022/01/04 08:05:55;;;;;;;14.13;3.97;;;;;;;9.87;53.26;99020.53;5072333;28;20040;-71
2022/01/04 08:08:21;;;;;;;7.53;2.95;;;;;;;10.15;52.22;99012.41;5075061;28;20086;-71
2022/01/04 08:10:50;;;;;;;8.15;3.35;;;;;;;10.40;51.48;99007.34;5074076;28;20075;-68
2022/01/04 08:13:16;;;;;;;7.63;3.50;;;;;;;9.87;53.33;99017.84;5073663;28;20504;-68
2022/01/04 08:15:43;;;;;;;6.93;3.03;;;;;;;10.34;51.92;99010.81;5073588;28;20040;-68
2022/01/04 08:18:09;;;;;;;10.45;3.33;;;;;;;9.97;52.62;98997.69;5074598;28;20451;-70
2022/01/04 08:20:36;;;;;;;10.70;3.20;;;;;;;10.19;51.65;99005.63;5074227;28;20049;-70
2022/01/04 08:23:02;;;;;;;7.97;3.00;;;;;;;9.92;52.96;98994.78;5074180;28;20124;-69
2022/01/04 08:25:30;;;;;;;10.10;3.60;;;;;;;10.38;51.32;98990.66;5075690;28;20454;-71
2022/01/04 08:27:57;;;;;;;7.82;3.13;;;;;;;10.13;51.96;98993.03;5071196;28;20117;-70
2022/01/04 08:30:24;;;;;;;7.93;2.65;;;;;;;9.35;53.96;98990.50;5073957;28;20068;-71
2022/01/04 08:32:51;;;;;;;9.27;3.22;;;;;;;10.08;52.45;98984.75;5075214;28;20041;-71
2022/01/04 08:35:18;;;;;;;10.00;3.13;;;;;;;10.12;52.30;98986.84;5073873;28;20128;-70
2022/01/04 08:37:44;;;;;;;4.15;2.30;;;;;;;10.56;51.10;98984.75;5073867;28;20064;-70
2022/01/04 08:40:11;;;;;;;11.88;4.00;;;;;;;9.74;53.28;98981.91;5074236;28;20508;-71
2022/01/04 08:42:38;;;;;;;8.20;3.15;;;;;;;10.11;52.41;98979.00;5073880;28;20416;-70
2022/01/04 08:45:07;;;;;;;10.25;3.08;;;;;;;10.22;52.00;98978.44;5073639;28;20048;-70
2022/01/04 08:47:34;;;;;;;4.50;2.58;;;;;;;10.10;51.71;98980.00;5053679;28;20064;-70
2022/01/04 08:50:02;;;;;;;6.20;2.95;;;;;;;10.54;51.01;98986.81;5030562;28;20132;-70
2022/01/04 08:52:28;;;;;;;7.88;2.50;;;;;;;10.16;51.86;98979.22;5032269;28;20449;-70
2022/01/04 08:54:58;;;;;;;6.43;2.65;;;;;;;10.46;50.85;98977.88;5033884;28;20132;-70
2022/01/04 08:57:25;;;;;;;8.63;2.58;;;;;;;10.70;50.55;98973.84;5033619;28;20049;-70
2022/01/04 08:59:54;;;;;;;6.28;2.30;;;;;;;10.44;50.92;98965.72;5031153;28;20041;-70
2022/01/04 09:02:22;;;;;;;4.32;2.83;;;;;;;10.56;50.65;98960.63;5033659;28;20120;-70
2022/01/04 09:04:50;;;;;;;4.68;2.15;;;;;;;10.86;49.88;98961.06;5032324;28;20049;-70
2022/01/04 09:07:17;;;;;;;11.15;2.58;;;;;;;10.31;51.03;98949.63;5031375;28;20132;-71
2022/01/04 09:09:43;;;;;;;5.82;2.78;;;;;;;10.31;51.39;98953.13;5029878;28;20245;-70
2022/01/04 09:12:31;;;;;;;5.57;2.78;;;;;;;10.42;50.79;98949.03;5031496;28;20042;-70
2022/01/04 09:15:05;;;;;;;7.15;2.40;;;;;;;9.75;52.73;98955.94;5030109;28;20597;-71
2022/01/04 09:20:17;;;;;;;10.55;4.85;;;;;;;10.31;51.28;98953.13;5031714;28;20068;-70
2022/01/04 09:22:43;;;;;;;10.65;4.97;;;;;;;10.32;51.26;98945.91;5054363;28;20472;-70
2022/01/04 09:25:10;;;;;;;8.32;3.00;;;;;;;10.58;50.43;98947.81;5037614;28;20123;-70
2022/01/04 09:27:37;;;;;;;6.95;2.65;;;;;;;10.37;51.30;98946.09;5052501;28;20543;-70
2022/01/04 09:30:05;;;;;;;6.18;2.22;;;;;;;10.26;51.05;98945.66;5052527;28;20553;-70
2022/01/04 09:32:33;;;;;;;8.05;2.88;;;;;;;10.49;50.78;98934.59;5053352;28;20472;-70
2022/01/04 09:35:01;;;;;;;8.45;2.28;;;;;;;10.99;49.90;98932.38;5054057;28;20536;-71
2022/01/04 09:37:27;;;;;;;5.05;2.45;;;;;;;10.25;51.56;98945.88;5058332;28;20432;-71
2022/01/04 09:39:54;;;;;;;7.60;2.70;;;;;;;9.93;52.66;98940.19;5053949;28;20039;-70
2022/01/04 09:42:21;;;;;;;5.55;2.20;;;;;;;10.52;50.97;98932.56;5055369;28;20075;-70
2022/01/04 09:44:49;;;;;;;5.15;2.38;;;;;;;10.61;50.80;98923.28;5052715;28;20064;-70
2022/01/04 09:47:15;;;;;;;6.78;2.63;;;;;;;10.77;50.60;98920.22;5053253;28;20110;-70
2022/01/04 09:49:42;;;;;;;6.32;2.83;;;;;;;11.01;50.18;98923.31;5052229;28;20068;-70
2022/01/04 09:52:09;;;;;;;5.10;2.60;;;;;;;10.78;50.82;98919.19;5051665;28;20040;-72
2022/01/04 09:54:37;;;;;;;6.15;2.50;;;;;;;10.54;51.52;98911.72;5050524;28;20044;-72
2022/01/04 09:57:04;;;;;;;6.88;2.75;;;;;;;10.16;52.19;98909.56;5033360;28;20067;-72
2022/01/04 09:59:30;;;;;;;6.93;2.45;;;;;;;10.92;50.55;98920.00;5057386;28;20099;-72
2022/01/04 10:02:11;;;;;;;5.70;2.20;;;;;;;10.96;50.60;98911.38;5051279;28;20152;-73
2022/01/04 10:04:38;;;;;;;3.85;1.92;;;;;;;10.32;51.81;98909.19;5051286;28;20473;-73
2022/01/04 10:07:08;;;;;;;2.88;2.00;;;;;;;10.09;52.83;98892.63;5045942;28;20051;-72
2022/01/04 10:09:44;;;;;;;5.35;2.08;;;;;;;10.21;52.31;98886.50;5033661;28;20109;-72
2022/01/04 10:12:15;;;;;;;6.03;2.40;;;;;;;10.03;52.88;98873.69;5050981;28;20041;-72
2022/01/04 10:14:46;;;;;;;4.65;2.33;;;;;;;9.78;53.23;98872.53;5071136;28;20454;-70
2022/01/04 10:17:15;;;;;;;2.13;1.50;;;;;;;9.97;53.06;98858.41;5071535;28;20048;-72
2022/01/04 10:19:47;;;;;;;4.18;1.85;;;;;;;9.61;54.12;98858.66;5070035;28;20108;-70
2022/01/04 10:22:28;;;;;;;6.00;3.10;;;;;;;9.83;53.51;98850.53;5070618;28;20056;-71
2022/01/04 10:25:00;;;;;;;2.55;1.63;;;;;;;9.90;53.75;98852.19;5072375;28;20119;-70
2022/01/04 10:27:40;;;;;;;3.60;2.30;;;;;;;9.56;54.48;98851.25;5072059;28;20451;-72
2022/01/04 10:30:14;;;;;;;3.80;1.85;;;;;;;9.70;54.33;98851.31;5072952;28;20500;-71
2022/01/04 10:33:04;;;;;;;3.40;1.83;;;;;;;9.27;55.29;98840.81;5069044;28;20070;-69
2022/01/04 10:35:45;;;;;;;2.60;1.60;;;;;;;9.54;54.63;98850.63;5072196;28;20132;-70
2022/01/04 10:38:17;;;;;;;6.25;2.00;;;;;;;9.73;54.97;98838.34;5070707;28;20040;-71
2022/01/04 10:40:47;;;;;;;4.22;1.85;;;;;;;10.10;54.18;98832.66;5069762;28;20404;-71
2022/01/04 10:43:17;;;;;;;7.28;1.70;;;;;;;9.62;55.34;98835.41;5071303;28;20115;-69
2022/01/04 10:45:45;;;;;;;2.67;1.80;;;;;;;10.31;53.59;98829.81;5071407;28;20131;-70
2022/01/04 10:48:22;;;;;;;3.03;1.95;;;;;;;10.12;53.95;98834.09;5071150;28;20053;-73
2022/01/04 10:50:55;;;;;;;4.03;2.10;;;;;;;9.91;54.18;98821.69;5070985;28;20071;-73
2022/01/04 10:53:35;;;;;;;4.38;2.25;;;;;;;10.44;52.72;98821.78;5069576;28;20057;-72
2022/01/04 10:56:05;;;;;;;2.67;1.50;;;;;;;10.95;51.66;98833.75;5070503;28;20068;-72
2022/01/04 10:58:46;;;;;;;7.65;2.65;;;;;;;11.11;51.41;98832.50;5070809;28;20127;-72
2022/01/04 11:01:18;;;;;;;2.85;2.00;;;;;;;11.09;51.13;98829.19;5072390;28;20467;-72
2022/01/04 11:03:51;;;;;;;6.15;2.15;;;;;;;10.99;51.21;98835.78;5074766;28;20503;-72
2022/01/04 11:06:27;;;;;;;4.03;2.40;;;;;;;10.44;52.89;98837.88;5074801;28;20483;-72
2022/01/04 11:08:54;;;;;;;4.53;2.33;;;;;;;10.95;51.79;98834.56;5074007;28;20112;-72
2022/01/04 11:11:21;;;;;;;12.18;2.53;;;;;;;10.86;52.03;98827.78;5074112;28;20143;-72
2022/01/04 11:13:51;;;;;;;4.30;1.90;;;;;;;10.88;51.65;98822.19;5057030;28;20064;-72
2022/01/04 11:16:22;;;;;;;3.95;1.70;;;;;;;10.48;52.75;98825.72;5074806;28;20071;-72
2022/01/04 11:18:52;;;;;;;;;;;;;;;10.30;53.46;98824.66;5074528;28;20404;-73
2022/01/04 11:21:24;;;;;;;4.10;1.80;;;;;;;10.49;52.90;98826.53;5075161;28;19924;-72
2022/01/04 11:23:53;;;;;;;3.50;1.92;;;;;;;9.79;54.33;98821.47;5073917;28;20071;-72
2022/01/04 11:26:20;;;;;;;4.68;2.17;;;;;;;9.91;54.25;98815.53;5073117;28;20044;-72
2022/01/04 11:28:49;;;;;;;3.70;1.65;;;;;;;10.41;53.20;98816.84;5074433;28;20124;-72
2022/01/04 11:31:41;;;;;;;5.00;2.15;;;;;;;10.37;53.38;98793.31;5072822;28;20079;-72
2022/01/04 11:34:26;;;;;;;3.17;1.77;;;;;;;10.41;53.26;98783.81;5073017;28;20135;-72
2022/01/04 11:36:53;;;;;;;4.47;2.22;;;;;;;10.93;52.28;98774.94;5046593;28;20123;-72
2022/01/04 11:39:30;;;;;;;3.88;2.10;;;;;;;10.56;52.92;98767.56;5073908;28;20070;-72
2022/01/04 11:41:59;;;;;;;2.75;1.75;;;;;;;9.93;54.78;98758.06;5073702;28;20040;-72
2022/01/04 11:44:29;;;;;;;4.60;2.05;;;;;;;10.43;53.51;98768.38;5073473;28;20127;-72
2022/01/04 11:47:08;;;;;;;4.18;1.95;;;;;;;10.34;53.50;98769.59;5074071;28;20045;-72
2022/01/04 11:49:37;;;;;;;5.00;2.17;;;;;;;9.91;54.80;98768.13;5074830;28;20072;-72
2022/01/04 11:52:05;;;;;;;4.47;1.80;;;;;;;9.96;54.92;98754.97;5076286;28;20055;-71
2022/01/04 11:54:32;;;;;;;5.32;2.05;;;;;;;9.98;54.36;98749.38;5075015;28;20052;-71